sensor_id;sensor_type;location;lat;lon;timestamp;P1;durP1;ratioP1;P2;durP2;ratioP2
6288;SDS011;3177;49.880;8.836;2022-09-01T00:00:49;3.93;;;3.50;;
6288;SDS011;3177;49.880;8.836;2022-09-01T00:03:16;4.23;;;3.57;;
6288;SDS011;3177;49.880;8.836;2022-09-01T00:05:43;4.30;;;3.77;;
6288;SDS011;3177;49.880;8.836;2022-09-01T00:08:15;4.10;;;3.70;;
6288;SDS011;3177;49.880;8.836;2022-09-01T00:10:42;4.23;;;3.30;;
6288;SDS011;3177;49.880;8.836;2022-09-01T00:13:10;5.67;;;3.47;;
6288;SDS011;3177;49.880;8.836;2022-09-01T00:15:37;3.70;;;3.40;;
6288;SDS011;3177;49.880;8.836;2022-09-01T00:18:04;3.77;;;3.37;;
6288;SDS011;3177;49.880;8.836;2022-09-01T00:20:31;4.03;;;3.13;;
6288;SDS011;3177;49.880;8.836;2022-09-01T00:22:58;3.50;;;3.17;;
6288;SDS011;3177;49.880;8.836;2022-09-01T00:25:27;3.80;;;3.43;;
6288;SDS011;3177;49.880;8.836;2022-09-01T00:27:54;3.97;;;3.67;;
6288;SDS011;3177;49.880;8.836;2022-09-01T00:30:24;4.73;;;3.43;;
6288;SDS011;3177;49.880;8.836;2022-09-01T00:32:51;5.20;;;3.20;;
6288;SDS011;3177;49.880;8.836;2022-09-01T00:35:18;3.70;;;3.40;;
6288;SDS011;3177;49.880;8.836;2022-09-01T00:37:45;3.67;;;3.37;;
6288;SDS011;3177;49.880;8.836;2022-09-01T00:40:13;3.40;;;3.10;;
6288;SDS011;3177;49.880;8.836;2022-09-01T00:42:41;3.60;;;3.30;;
6288;SDS011;3177;49.880;8.836;2022-09-01T00:45:09;3.70;;;3.40;;
6288;SDS011;3177;49.880;8.836;2022-09-01T00:47:37;5.17;;;3.50;;
6288;SDS011;3177;49.880;8.836;2022-09-01T00:50:05;3.60;;;3.33;;
6288;SDS011;3177;49.880;8.836;2022-09-01T00:52:34;4.63;;;3.50;;
6288;SDS011;3177;49.880;8.836;2022-09-01T00:55:04;3.77;;;3.40;;
6288;SDS011;3177;49.880;8.836;2022-09-01T00:57:33;4.30;;;3.90;;
6288;SDS011;3177;49.880;8.836;2022-09-01T01:00:04;4.27;;;3.40;;
6288;SDS011;3177;49.880;8.836;2022-09-01T01:02:32;4.43;;;4.03;;
6288;SDS011;3177;49.880;8.836;2022-09-01T01:04:59;3.53;;;3.23;;
6288;SDS011;3177;49.880;8.836;2022-09-01T01:07:27;4.93;;;3.53;;
6288;SDS011;3177;49.880;8.836;2022-09-01T01:09:54;3.40;;;3.10;;
6288;SDS011;3177;49.880;8.836;2022-09-01T01:12:22;5.60;;;4.10;;
6288;SDS011;3177;49.880;8.836;2022-09-01T01:14:51;3.60;;;3.30;;
6288;SDS011;3177;49.880;8.836;2022-09-01T01:17:20;5.07;;;3.30;;
6288;SDS011;3177;49.880;8.836;2022-09-01T01:19:48;4.80;;;3.03;;
6288;SDS011;3177;49.880;8.836;2022-09-01T01:22:36;5.00;;;3.83;;
6288;SDS011;3177;49.880;8.836;2022-09-01T01:25:24;3.57;;;3.27;;
6288;SDS011;3177;49.880;8.836;2022-09-01T01:27:51;4.70;;;3.40;;
6288;SDS011;3177;49.880;8.836;2022-09-01T01:30:19;3.30;;;3.03;;
6288;SDS011;3177;49.880;8.836;2022-09-01T01:32:47;3.70;;;3.40;;
6288;SDS011;3177;49.880;8.836;2022-09-01T01:35:16;4.00;;;3.70;;
6288;SDS011;3177;49.880;8.836;2022-09-01T01:37:45;3.37;;;3.10;;
6288;SDS011;3177;49.880;8.836;2022-09-01T01:40:13;4.37;;;3.20;;
6288;SDS011;3177;49.880;8.836;2022-09-01T01:42:43;4.63;;;3.10;;
6288;SDS011;3177;49.880;8.836;2022-09-01T01:45:11;3.83;;;3.27;;
6288;SDS011;3177;49.880;8.836;2022-09-01T01:47:41;3.60;;;3.30;;
6288;SDS011;3177;49.880;8.836;2022-09-01T01:50:10;14.47;;;4.57;;
6288;SDS011;3177;49.880;8.836;2022-09-01T01:52:39;3.97;;;3.37;;
6288;SDS011;3177;49.880;8.836;2022-09-01T01:55:07;4.30;;;3.33;;
6288;SDS011;3177;49.880;8.836;2022-09-01T01:57:36;3.53;;;3.23;;
6288;SDS011;3177;49.880;8.836;2022-09-01T02:00:05;4.13;;;3.17;;
6288;SDS011;3177;49.880;8.836;2022-09-01T02:02:33;3.60;;;3.10;;
6288;SDS011;3177;49.880;8.836;2022-09-01T02:05:02;4.50;;;3.60;;
6288;SDS011;3177;49.880;8.836;2022-09-01T02:07:30;4.77;;;3.40;;
6288;SDS011;3177;49.880;8.836;2022-09-01T02:09:57;3.50;;;3.20;;
6288;SDS011;3177;49.880;8.836;2022-09-01T02:12:25;4.20;;;3.30;;
6288;SDS011;3177;49.880;8.836;2022-09-01T02:14:52;3.23;;;3.03;;
6288;SDS011;3177;49.880;8.836;2022-09-01T02:17:22;3.97;;;3.53;;
6288;SDS011;3177;49.880;8.836;2022-09-01T02:19:51;3.67;;;3.27;;
6288;SDS011;3177;49.880;8.836;2022-09-01T02:22:21;3.97;;;3.40;;
6288;SDS011;3177;49.880;8.836;2022-09-01T02:24:48;4.13;;;3.10;;
6288;SDS011;3177;49.880;8.836;2022-09-01T02:27:16;3.53;;;3.30;;
6288;SDS011;3177;49.880;8.836;2022-09-01T02:29:45;3.43;;;3.23;;
6288;SDS011;3177;49.880;8.836;2022-09-01T02:32:19;3.30;;;3.00;;
6288;SDS011;3177;49.880;8.836;2022-09-01T02:34:49;3.40;;;3.10;;
6288;SDS011;3177;49.880;8.836;2022-09-01T02:37:18;4.23;;;3.30;;
6288;SDS011;3177;49.880;8.836;2022-09-01T02:39:49;5.00;;;3.37;;
6288;SDS011;3177;49.880;8.836;2022-09-01T02:42:16;3.73;;;3.43;;
6288;SDS011;3177;49.880;8.836;2022-09-01T02:44:51;4.53;;;3.40;;
6288;SDS011;3177;49.880;8.836;2022-09-01T02:47:18;3.60;;;3.30;;
6288;SDS011;3177;49.880;8.836;2022-09-01T02:49:48;3.80;;;3.40;;
6288;SDS011;3177;49.880;8.836;2022-09-01T02:52:15;5.80;;;3.53;;
6288;SDS011;3177;49.880;8.836;2022-09-01T02:54:45;3.40;;;3.20;;
6288;SDS011;3177;49.880;8.836;2022-09-01T02:57:14;4.17;;;3.53;;
6288;SDS011;3177;49.880;8.836;2022-09-01T02:59:42;6.03;;;3.17;;
6288;SDS011;3177;49.880;8.836;2022-09-01T03:02:11;3.47;;;3.17;;
6288;SDS011;3177;49.880;8.836;2022-09-01T03:04:38;3.70;;;3.40;;
6288;SDS011;3177;49.880;8.836;2022-09-01T03:07:07;3.77;;;3.43;;
6288;SDS011;3177;49.880;8.836;2022-09-01T03:09:34;4.10;;;3.67;;
6288;SDS011;3177;49.880;8.836;2022-09-01T03:12:05;5.93;;;3.47;;
6288;SDS011;3177;49.880;8.836;2022-09-01T03:14:32;5.23;;;3.50;;
6288;SDS011;3177;49.880;8.836;2022-09-01T03:16:59;4.90;;;3.30;;
6288;SDS011;3177;49.880;8.836;2022-09-01T03:19:26;8.37;;;3.73;;
6288;SDS011;3177;49.880;8.836;2022-09-01T03:21:56;4.03;;;3.67;;
6288;SDS011;3177;49.880;8.836;2022-09-01T03:24:25;4.63;;;3.40;;
6288;SDS011;3177;49.880;8.836;2022-09-01T03:26:52;4.50;;;3.57;;
6288;SDS011;3177;49.880;8.836;2022-09-01T03:29:20;8.80;;;3.80;;
6288;SDS011;3177;49.880;8.836;2022-09-01T03:31:47;4.50;;;4.10;;
6288;SDS011;3177;49.880;8.836;2022-09-01T03:34:14;3.77;;;3.30;;
6288;SDS011;3177;49.880;8.836;2022-09-01T03:36:44;6.87;;;3.37;;
6288;SDS011;3177;49.880;8.836;2022-09-01T03:39:14;3.40;;;3.10;;
6288;SDS011;3177;49.880;8.836;2022-09-01T03:41:43;8.57;;;4.37;;
6288;SDS011;3177;49.880;8.836;2022-09-01T03:44:10;4.27;;;3.87;;
6288;SDS011;3177;49.880;8.836;2022-09-01T03:46:40;4.17;;;3.77;;
6288;SDS011;3177;49.880;8.836;2022-09-01T03:49:08;4.37;;;3.60;;
6288;SDS011;3177;49.880;8.836;2022-09-01T03:51:39;4.30;;;3.90;;
6288;SDS011;3177;49.880;8.836;2022-09-01T03:54:08;4.23;;;3.83;;
6288;SDS011;3177;49.880;8.836;2022-09-01T03:56:35;4.40;;;3.70;;
6288;SDS011;3177;49.880;8.836;2022-09-01T03:59:07;3.80;;;3.50;;
6288;SDS011;3177;49.880;8.836;2022-09-01T04:01:40;4.87;;;3.67;;
6288;SDS011;3177;49.880;8.836;2022-09-01T04:04:08;4.80;;;3.77;;
6288;SDS011;3177;49.880;8.836;2022-09-01T04:06:38;5.87;;;3.57;;
6288;SDS011;3177;49.880;8.836;2022-09-01T04:09:05;5.50;;;3.47;;
6288;SDS011;3177;49.880;8.836;2022-09-01T04:11:32;4.53;;;4.13;;
6288;SDS011;3177;49.880;8.836;2022-09-01T04:14:01;3.80;;;3.50;;
6288;SDS011;3177;49.880;8.836;2022-09-01T04:16:32;3.53;;;3.13;;
6288;SDS011;3177;49.880;8.836;2022-09-01T04:19:18;6.33;;;3.53;;
6288;SDS011;3177;49.880;8.836;2022-09-01T04:21:50;5.03;;;3.10;;
6288;SDS011;3177;49.880;8.836;2022-09-01T04:24:17;3.57;;;3.27;;
6288;SDS011;3177;49.880;8.836;2022-09-01T04:26:45;3.57;;;3.27;;
6288;SDS011;3177;49.880;8.836;2022-09-01T04:29:13;4.30;;;3.57;;
6288;SDS011;3177;49.880;8.836;2022-09-01T04:31:44;4.93;;;3.97;;
6288;SDS011;3177;49.880;8.836;2022-09-01T04:34:13;4.10;;;3.73;;
6288;SDS011;3177;49.880;8.836;2022-09-01T04:36:40;3.93;;;3.60;;
6288;SDS011;3177;49.880;8.836;2022-09-01T04:39:09;6.13;;;3.63;;
6288;SDS011;3177;49.880;8.836;2022-09-01T04:41:38;3.77;;;3.47;;
6288;SDS011;3177;49.880;8.836;2022-09-01T04:44:06;3.70;;;3.13;;
6288;SDS011;3177;49.880;8.836;2022-09-01T04:46:34;4.23;;;3.90;;
6288;SDS011;3177;49.880;8.836;2022-09-01T04:49:04;4.07;;;3.60;;
6288;SDS011;3177;49.880;8.836;2022-09-01T04:51:36;5.07;;;3.87;;
6288;SDS011;3177;49.880;8.836;2022-09-01T04:54:03;7.77;;;4.13;;
6288;SDS011;3177;49.880;8.836;2022-09-01T04:56:37;4.30;;;3.70;;
6288;SDS011;3177;49.880;8.836;2022-09-01T04:59:04;3.97;;;3.57;;
6288;SDS011;3177;49.880;8.836;2022-09-01T05:01:33;5.00;;;3.73;;
6288;SDS011;3177;49.880;8.836;2022-09-01T05:04:08;4.93;;;3.70;;
6288;SDS011;3177;49.880;8.836;2022-09-01T05:06:38;6.27;;;4.07;;
6288;SDS011;3177;49.880;8.836;2022-09-01T05:09:06;7.23;;;3.93;;
6288;SDS011;3177;49.880;8.836;2022-09-01T05:11:33;4.10;;;3.80;;
6288;SDS011;3177;49.880;8.836;2022-09-01T05:14:01;4.50;;;4.20;;
6288;SDS011;3177;49.880;8.836;2022-09-01T05:16:29;5.13;;;4.63;;
6288;SDS011;3177;49.880;8.836;2022-09-01T05:18:57;4.63;;;4.23;;
6288;SDS011;3177;49.880;8.836;2022-09-01T05:21:26;4.90;;;4.50;;
6288;SDS011;3177;49.880;8.836;2022-09-01T05:23:54;4.93;;;4.53;;
6288;SDS011;3177;49.880;8.836;2022-09-01T05:26:22;5.73;;;4.73;;
6288;SDS011;3177;49.880;8.836;2022-09-01T05:28:50;5.23;;;4.10;;
6288;SDS011;3177;49.880;8.836;2022-09-01T05:31:19;4.97;;;3.90;;
6288;SDS011;3177;49.880;8.836;2022-09-01T05:33:46;4.70;;;4.30;;
6288;SDS011;3177;49.880;8.836;2022-09-01T05:36:15;5.00;;;4.50;;
6288;SDS011;3177;49.880;8.836;2022-09-01T05:38:45;4.70;;;4.07;;
6288;SDS011;3177;49.880;8.836;2022-09-01T05:41:13;4.83;;;4.37;;
6288;SDS011;3177;49.880;8.836;2022-09-01T05:43:40;6.80;;;4.73;;
6288;SDS011;3177;49.880;8.836;2022-09-01T05:46:10;4.40;;;4.00;;
6288;SDS011;3177;49.880;8.836;2022-09-01T05:48:41;5.67;;;4.50;;
6288;SDS011;3177;49.880;8.836;2022-09-01T05:51:08;4.90;;;4.50;;
6288;SDS011;3177;49.880;8.836;2022-09-01T05:53:35;7.27;;;4.67;;
6288;SDS011;3177;49.880;8.836;2022-09-01T05:56:06;6.87;;;4.53;;
6288;SDS011;3177;49.880;8.836;2022-09-01T05:58:34;6.00;;;4.83;;
6288;SDS011;3177;49.880;8.836;2022-09-01T06:01:02;5.03;;;4.53;;
6288;SDS011;3177;49.880;8.836;2022-09-01T06:03:29;6.03;;;5.10;;
6288;SDS011;3177;49.880;8.836;2022-09-01T06:06:00;6.30;;;4.93;;
6288;SDS011;3177;49.880;8.836;2022-09-01T06:08:27;4.90;;;4.50;;
6288;SDS011;3177;49.880;8.836;2022-09-01T06:10:54;8.93;;;4.53;;
6288;SDS011;3177;49.880;8.836;2022-09-01T06:13:22;4.93;;;4.43;;
6288;SDS011;3177;49.880;8.836;2022-09-01T06:15:51;5.60;;;4.27;;
6288;SDS011;3177;49.880;8.836;2022-09-01T06:18:18;6.20;;;4.70;;
6288;SDS011;3177;49.880;8.836;2022-09-01T06:20:47;7.23;;;4.43;;
6288;SDS011;3177;49.880;8.836;2022-09-01T06:23:15;5.77;;;4.20;;
6288;SDS011;3177;49.880;8.836;2022-09-01T06:25:43;8.47;;;4.53;;
6288;SDS011;3177;49.880;8.836;2022-09-01T06:28:11;5.47;;;4.43;;
6288;SDS011;3177;49.880;8.836;2022-09-01T06:30:40;7.07;;;4.83;;
6288;SDS011;3177;49.880;8.836;2022-09-01T06:33:08;9.77;;;4.80;;
6288;SDS011;3177;49.880;8.836;2022-09-01T06:35:37;9.23;;;4.23;;
6288;SDS011;3177;49.880;8.836;2022-09-01T06:38:06;15.07;;;4.33;;
6288;SDS011;3177;49.880;8.836;2022-09-01T06:40:33;6.80;;;4.27;;
6288;SDS011;3177;49.880;8.836;2022-09-01T06:43:00;14.10;;;4.50;;
6288;SDS011;3177;49.880;8.836;2022-09-01T06:45:32;5.13;;;4.27;;
6288;SDS011;3177;49.880;8.836;2022-09-01T06:48:01;7.30;;;4.50;;
6288;SDS011;3177;49.880;8.836;2022-09-01T06:50:28;5.03;;;4.03;;
6288;SDS011;3177;49.880;8.836;2022-09-01T06:52:55;5.40;;;3.40;;
6288;SDS011;3177;49.880;8.836;2022-09-01T06:55:35;7.90;;;3.57;;
6288;SDS011;3177;49.880;8.836;2022-09-01T06:58:03;4.50;;;3.37;;
6288;SDS011;3177;49.880;8.836;2022-09-01T07:00:30;7.80;;;3.93;;
6288;SDS011;3177;49.880;8.836;2022-09-01T07:02:57;6.63;;;4.07;;
6288;SDS011;3177;49.880;8.836;2022-09-01T07:05:25;5.03;;;3.10;;
6288;SDS011;3177;49.880;8.836;2022-09-01T07:07:53;3.83;;;2.90;;
6288;SDS011;3177;49.880;8.836;2022-09-01T07:10:21;3.47;;;3.17;;
6288;SDS011;3177;49.880;8.836;2022-09-01T07:12:48;4.40;;;3.10;;
6288;SDS011;3177;49.880;8.836;2022-09-01T07:15:16;4.67;;;2.90;;
6288;SDS011;3177;49.880;8.836;2022-09-01T07:17:45;7.33;;;3.10;;
6288;SDS011;3177;49.880;8.836;2022-09-01T07:20:14;3.77;;;2.80;;
6288;SDS011;3177;49.880;8.836;2022-09-01T07:22:42;2.70;;;2.50;;
6288;SDS011;3177;49.880;8.836;2022-09-01T07:25:10;5.97;;;2.70;;
6288;SDS011;3177;49.880;8.836;2022-09-01T07:27:37;5.17;;;2.60;;
6288;SDS011;3177;49.880;8.836;2022-09-01T07:30:05;7.13;;;2.70;;
6288;SDS011;3177;49.880;8.836;2022-09-01T07:32:33;2.93;;;2.53;;
6288;SDS011;3177;49.880;8.836;2022-09-01T07:35:00;5.00;;;2.30;;
6288;SDS011;3177;49.880;8.836;2022-09-01T07:37:30;2.80;;;2.40;;
6288;SDS011;3177;49.880;8.836;2022-09-01T07:40:03;2.50;;;2.30;;
6288;SDS011;3177;49.880;8.836;2022-09-01T07:42:32;6.20;;;2.50;;
6288;SDS011;3177;49.880;8.836;2022-09-01T07:44:59;4.43;;;2.50;;
6288;SDS011;3177;49.880;8.836;2022-09-01T07:47:31;5.93;;;3.23;;
6288;SDS011;3177;49.880;8.836;2022-09-01T07:50:01;3.58;;;2.20;;
6288;SDS011;3177;49.880;8.836;2022-09-01T07:52:29;3.28;;;2.50;;
6288;SDS011;3177;49.880;8.836;2022-09-01T07:55:00;8.32;;;2.42;;
6288;SDS011;3177;49.880;8.836;2022-09-01T07:57:29;3.28;;;2.17;;
6288;SDS011;3177;49.880;8.836;2022-09-01T07:59:56;3.88;;;2.00;;
6288;SDS011;3177;49.880;8.836;2022-09-01T08:02:23;3.78;;;2.13;;
6288;SDS011;3177;49.880;8.836;2022-09-01T08:04:51;4.40;;;2.08;;
6288;SDS011;3177;49.880;8.836;2022-09-01T08:07:19;2.58;;;2.15;;
6288;SDS011;3177;49.880;8.836;2022-09-01T08:09:46;2.33;;;2.10;;
6288;SDS011;3177;49.880;8.836;2022-09-01T08:12:13;2.50;;;2.03;;
6288;SDS011;3177;49.880;8.836;2022-09-01T08:14:41;3.38;;;2.00;;
6288;SDS011;3177;49.880;8.836;2022-09-01T08:17:10;4.72;;;2.20;;
6288;SDS011;3177;49.880;8.836;2022-09-01T08:19:37;3.45;;;2.03;;
6288;SDS011;3177;49.880;8.836;2022-09-01T08:22:04;2.63;;;2.15;;
6288;SDS011;3177;49.880;8.836;2022-09-01T08:24:31;3.17;;;2.08;;
6288;SDS011;3177;49.880;8.836;2022-09-01T08:26:58;2.22;;;1.92;;
6288;SDS011;3177;49.880;8.836;2022-09-01T08:29:25;2.00;;;1.67;;
6288;SDS011;3177;49.880;8.836;2022-09-01T08:31:54;2.13;;;2.03;;
6288;SDS011;3177;49.880;8.836;2022-09-01T08:34:23;4.05;;;2.20;;
6288;SDS011;3177;49.880;8.836;2022-09-01T08:36:50;4.32;;;1.92;;
6288;SDS011;3177;49.880;8.836;2022-09-01T08:39:17;4.43;;;1.92;;
6288;SDS011;3177;49.880;8.836;2022-09-01T08:41:46;2.17;;;1.98;;
6288;SDS011;3177;49.880;8.836;2022-09-01T08:44:19;4.45;;;2.28;;
6288;SDS011;3177;49.880;8.836;2022-09-01T08:46:48;3.85;;;1.90;;
6288;SDS011;3177;49.880;8.836;2022-09-01T08:49:22;3.78;;;1.90;;
6288;SDS011;3177;49.880;8.836;2022-09-01T08:51:50;7.20;;;2.03;;
6288;SDS011;3177;49.880;8.836;2022-09-01T08:54:20;4.90;;;1.98;;
6288;SDS011;3177;49.880;8.836;2022-09-01T08:56:50;2.85;;;2.10;;
6288;SDS011;3177;49.880;8.836;2022-09-01T08:59:18;2.10;;;2.00;;
6288;SDS011;3177;49.880;8.836;2022-09-01T09:01:47;2.42;;;1.67;;
6288;SDS011;3177;49.880;8.836;2022-09-01T09:04:24;2.67;;;1.90;;
6288;SDS011;3177;49.880;8.836;2022-09-01T09:06:54;2.47;;;1.90;;
6288;SDS011;3177;49.880;8.836;2022-09-01T09:09:28;2.95;;;2.00;;
6288;SDS011;3177;49.880;8.836;2022-09-01T09:12:02;2.88;;;2.28;;
6288;SDS011;3177;49.880;8.836;2022-09-01T09:14:44;3.88;;;2.00;;
6288;SDS011;3177;49.880;8.836;2022-09-01T09:17:16;2.35;;;1.60;;
6288;SDS011;3177;49.880;8.836;2022-09-01T09:19:46;3.40;;;1.67;;
6288;SDS011;3177;49.880;8.836;2022-09-01T09:22:14;3.22;;;1.80;;
6288;SDS011;3177;49.880;8.836;2022-09-01T09:24:43;2.30;;;1.85;;
6288;SDS011;3177;49.880;8.836;2022-09-01T09:27:15;2.58;;;1.73;;
6288;SDS011;3177;49.880;8.836;2022-09-01T09:29:42;2.10;;;1.90;;
6288;SDS011;3177;49.880;8.836;2022-09-01T09:32:09;2.85;;;1.83;;
6288;SDS011;3177;49.880;8.836;2022-09-01T09:34:37;2.15;;;1.80;;
6288;SDS011;3177;49.880;8.836;2022-09-01T09:37:25;2.05;;;1.85;;
6288;SDS011;3177;49.880;8.836;2022-09-01T09:40:03;4.05;;;1.77;;
6288;SDS011;3177;49.880;8.836;2022-09-01T09:42:31;2.20;;;2.00;;
6288;SDS011;3177;49.880;8.836;2022-09-01T09:44:58;4.03;;;1.88;;
6288;SDS011;3177;49.880;8.836;2022-09-01T09:47:35;2.63;;;1.90;;
6288;SDS011;3177;49.880;8.836;2022-09-01T09:50:10;2.13;;;1.92;;
6288;SDS011;3177;49.880;8.836;2022-09-01T09:52:39;1.75;;;1.65;;
6288;SDS011;3177;49.880;8.836;2022-09-01T09:55:18;1.80;;;1.70;;
6288;SDS011;3177;49.880;8.836;2022-09-01T09:57:46;3.35;;;1.92;;
6288;SDS011;3177;49.880;8.836;2022-09-01T10:00:17;2.70;;;2.05;;
6288;SDS011;3177;49.880;8.836;2022-09-01T10:02:45;1.92;;;1.67;;
6288;SDS011;3177;49.880;8.836;2022-09-01T10:05:21;4.90;;;1.90;;
6288;SDS011;3177;49.880;8.836;2022-09-01T10:07:50;2.92;;;1.92;;
6288;SDS011;3177;49.880;8.836;2022-09-01T10:10:27;2.25;;;1.92;;
6288;SDS011;3177;49.880;8.836;2022-09-01T10:12:54;2.75;;;1.88;;
6288;SDS011;3177;49.880;8.836;2022-09-01T10:15:22;1.92;;;1.70;;
6288;SDS011;3177;49.880;8.836;2022-09-01T10:17:50;3.15;;;1.70;;
6288;SDS011;3177;49.880;8.836;2022-09-01T10:20:19;1.70;;;1.60;;
6288;SDS011;3177;49.880;8.836;2022-09-01T10:22:47;1.67;;;1.58;;
6288;SDS011;3177;49.880;8.836;2022-09-01T10:25:17;2.15;;;1.83;;
6288;SDS011;3177;49.880;8.836;2022-09-01T10:27:46;2.00;;;1.90;;
6288;SDS011;3177;49.880;8.836;2022-09-01T10:30:15;2.13;;;1.50;;
6288;SDS011;3177;49.880;8.836;2022-09-01T10:32:43;1.90;;;1.60;;
6288;SDS011;3177;49.880;8.836;2022-09-01T10:35:13;2.60;;;1.50;;
6288;SDS011;3177;49.880;8.836;2022-09-01T10:37:43;1.70;;;1.60;;
6288;SDS011;3177;49.880;8.836;2022-09-01T10:40:13;2.40;;;1.58;;
6288;SDS011;3177;49.880;8.836;2022-09-01T10:42:43;2.92;;;1.50;;
6288;SDS011;3177;49.880;8.836;2022-09-01T10:45:18;1.80;;;1.60;;
6288;SDS011;3177;49.880;8.836;2022-09-01T10:47:46;5.63;;;1.50;;
6288;SDS011;3177;49.880;8.836;2022-09-01T10:50:22;1.70;;;1.60;;
6288;SDS011;3177;49.880;8.836;2022-09-01T10:53:03;2.88;;;1.90;;
6288;SDS011;3177;49.880;8.836;2022-09-01T10:55:33;2.88;;;1.45;;
6288;SDS011;3177;49.880;8.836;2022-09-01T10:58:14;1.50;;;1.40;;
6288;SDS011;3177;49.880;8.836;2022-09-01T11:00:49;1.52;;;1.40;;
6288;SDS011;3177;49.880;8.836;2022-09-01T11:06:03;2.97;;;1.55;;
6288;SDS011;3177;49.880;8.836;2022-09-01T11:08:41;3.85;;;2.08;;
6288;SDS011;3177;49.880;8.836;2022-09-01T11:11:11;2.05;;;1.50;;
6288;SDS011;3177;49.880;8.836;2022-09-01T11:13:43;2.88;;;1.40;;
6288;SDS011;3177;49.880;8.836;2022-09-01T11:16:29;3.65;;;1.58;;
6288;SDS011;3177;49.880;8.836;2022-09-01T11:19:15;1.45;;;1.35;;
6288;SDS011;3177;49.880;8.836;2022-09-01T11:21:45;1.80;;;1.70;;
6288;SDS011;3177;49.880;8.836;2022-09-01T11:27:03;4.97;;;1.67;;
6288;SDS011;3177;49.880;8.836;2022-09-01T11:32:17;4.40;;;1.42;;
6288;SDS011;3177;49.880;8.836;2022-09-01T11:34:45;1.60;;;1.50;;
6288;SDS011;3177;49.880;8.836;2022-09-01T11:37:19;2.83;;;1.52;;
6288;SDS011;3177;49.880;8.836;2022-09-01T11:39:47;2.40;;;1.30;;
6288;SDS011;3177;49.880;8.836;2022-09-01T11:42:16;1.65;;;1.40;;
6288;SDS011;3177;49.880;8.836;2022-09-01T11:44:47;1.48;;;1.38;;
6288;SDS011;3177;49.880;8.836;2022-09-01T11:47:17;2.38;;;1.63;;
6288;SDS011;3177;49.880;8.836;2022-09-01T11:49:48;1.77;;;1.35;;
6288;SDS011;3177;49.880;8.836;2022-09-01T11:52:20;1.55;;;1.45;;
6288;SDS011;3177;49.880;8.836;2022-09-01T11:54:47;2.92;;;1.50;;
6288;SDS011;3177;49.880;8.836;2022-09-01T11:57:18;3.70;;;1.50;;
6288;SDS011;3177;49.880;8.836;2022-09-01T11:59:45;1.98;;;1.70;;
6288;SDS011;3177;49.880;8.836;2022-09-01T12:02:17;2.85;;;1.48;;
6288;SDS011;3177;49.880;8.836;2022-09-01T12:04:45;1.55;;;1.30;;
6288;SDS011;3177;49.880;8.836;2022-09-01T12:07:13;2.75;;;1.70;;
6288;SDS011;3177;49.880;8.836;2022-09-01T12:09:49;3.40;;;1.30;;
6288;SDS011;3177;49.880;8.836;2022-09-01T12:12:27;1.75;;;1.40;;
6288;SDS011;3177;49.880;8.836;2022-09-01T12:14:55;1.75;;;1.50;;
6288;SDS011;3177;49.880;8.836;2022-09-01T12:17:24;1.70;;;1.50;;
6288;SDS011;3177;49.880;8.836;2022-09-01T12:19:51;1.02;;;1.02;;
6288;SDS011;3177;49.880;8.836;2022-09-01T12:22:19;1.52;;;1.42;;
6288;SDS011;3177;49.880;8.836;2022-09-01T12:24:48;2.50;;;1.30;;
6288;SDS011;3177;49.880;8.836;2022-09-01T12:27:16;1.42;;;1.30;;
6288;SDS011;3177;49.880;8.836;2022-09-01T12:29:43;1.50;;;1.40;;
6288;SDS011;3177;49.880;8.836;2022-09-01T12:32:10;1.65;;;1.33;;
6288;SDS011;3177;49.880;8.836;2022-09-01T12:34:43;2.28;;;1.40;;
6288;SDS011;3177;49.880;8.836;2022-09-01T12:37:11;3.42;;;1.77;;
6288;SDS011;3177;49.880;8.836;2022-09-01T12:39:38;2.03;;;1.77;;
6288;SDS011;3177;49.880;8.836;2022-09-01T12:42:08;1.50;;;1.40;;
6288;SDS011;3177;49.880;8.836;2022-09-01T12:44:43;1.63;;;1.20;;
6288;SDS011;3177;49.880;8.836;2022-09-01T12:47:12;1.90;;;1.40;;
6288;SDS011;3177;49.880;8.836;2022-09-01T12:49:42;1.90;;;1.40;;
6288;SDS011;3177;49.880;8.836;2022-09-01T12:52:11;1.50;;;1.38;;
6288;SDS011;3177;49.880;8.836;2022-09-01T12:54:39;2.25;;;1.50;;
6288;SDS011;3177;49.880;8.836;2022-09-01T12:57:07;4.53;;;1.63;;
6288;SDS011;3177;49.880;8.836;2022-09-01T12:59:34;5.18;;;1.50;;
6288;SDS011;3177;49.880;8.836;2022-09-01T13:04:48;1.77;;;1.50;;
